sensor_id;sensor_type;location;lat;lon;timestamp;temperature;humidity
28767;DHT22;15921;52.034;20.650;2024-01-30T00:01:38;3.10;99.90
28767;DHT22;15921;52.034;20.650;2024-01-30T00:04:04;3.10;99.90
28767;DHT22;15921;52.034;20.650;2024-01-30T00:06:30;3.10;99.90
28767;DHT22;15921;52.034;20.650;2024-01-30T00:08:55;3.10;99.90
28767;DHT22;15921;52.034;20.650;2024-01-30T00:11:21;3.10;99.90
28767;DHT22;15921;52.034;20.650;2024-01-30T00:13:47;3.10;99.90
28767;DHT22;15921;52.034;20.650;2024-01-30T00:16:22;3.10;99.90
28767;DHT22;15921;52.034;20.650;2024-01-30T00:18:53;3.10;99.90
28767;DHT22;15921;52.034;20.650;2024-01-30T00:21:20;3.10;99.90
28767;DHT22;15921;52.034;20.650;2024-01-30T00:23:47;3.20;99.90
28767;DHT22;15921;52.034;20.650;2024-01-30T00:26:13;3.20;99.90
28767;DHT22;15921;52.034;20.650;2024-01-30T00:28:41;3.20;99.90
28767;DHT22;15921;52.034;20.650;2024-01-30T00:31:06;3.20;99.90
28767;DHT22;15921;52.034;20.650;2024-01-30T00:33:32;3.10;99.90
28767;DHT22;15921;52.034;20.650;2024-01-30T00:35:58;3.10;99.90
28767;DHT22;15921;52.034;20.650;2024-01-30T00:38:24;3.10;99.90
28767;DHT22;15921;52.034;20.650;2024-01-30T00:40:50;3.10;99.90
28767;DHT22;15921;52.034;20.650;2024-01-30T00:43:16;3.10;99.90
28767;DHT22;15921;52.034;20.650;2024-01-30T00:45:43;3.20;99.90
28767;DHT22;15921;52.034;20.650;2024-01-30T00:48:09;3.20;99.90
28767;DHT22;15921;52.034;20.650;2024-01-30T00:50:35;3.20;99.90
28767;DHT22;15921;52.034;20.650;2024-01-30T00:53:00;3.20;99.90
28767;DHT22;15921;52.034;20.650;2024-01-30T00:55:26;3.20;99.90
28767;DHT22;15921;52.034;20.650;2024-01-30T00:57:52;3.20;99.90
28767;DHT22;15921;52.034;20.650;2024-01-30T01:00:18;3.10;99.90
28767;DHT22;15921;52.034;20.650;2024-01-30T01:02:45;3.10;99.90
28767;DHT22;15921;52.034;20.650;2024-01-30T01:05:10;3.00;99.90
28767;DHT22;15921;52.034;20.650;2024-01-30T01:07:36;3.00;99.90
28767;DHT22;15921;52.034;20.650;2024-01-30T01:10:02;3.00;99.90
28767;DHT22;15921;52.034;20.650;2024-01-30T01:12:29;2.90;99.90
28767;DHT22;15921;52.034;20.650;2024-01-30T01:14:55;2.90;99.90
28767;DHT22;15921;52.034;20.650;2024-01-30T01:17:20;2.90;99.90
28767;DHT22;15921;52.034;20.650;2024-01-30T01:19:46;2.90;99.90
28767;DHT22;15921;52.034;20.650;2024-01-30T01:22:12;2.90;99.90
28767;DHT22;15921;52.034;20.650;2024-01-30T01:24:37;2.90;99.90
28767;DHT22;15921;52.034;20.650;2024-01-30T01:27:03;2.90;99.90
28767;DHT22;15921;52.034;20.650;2024-01-30T01:29:29;2.80;99.90
28767;DHT22;15921;52.034;20.650;2024-01-30T01:32:00;2.80;99.90
28767;DHT22;15921;52.034;20.650;2024-01-30T01:34:26;2.80;99.90
28767;DHT22;15921;52.034;20.650;2024-01-30T01:36:52;2.80;99.90
28767;DHT22;15921;52.034;20.650;2024-01-30T01:39:21;2.80;99.90
28767;DHT22;15921;52.034;20.650;2024-01-30T01:41:48;2.80;99.90
28767;DHT22;15921;52.034;20.650;2024-01-30T01:44:14;2.80;99.90
28767;DHT22;15921;52.034;20.650;2024-01-30T01:46:39;2.80;99.90
28767;DHT22;15921;52.034;20.650;2024-01-30T01:49:05;2.70;99.90
28767;DHT22;15921;52.034;20.650;2024-01-30T01:51:34;2.80;99.90
28767;DHT22;15921;52.034;20.650;2024-01-30T01:54:03;2.70;99.90
28767;DHT22;15921;52.034;20.650;2024-01-30T01:56:30;2.60;99.90
28767;DHT22;15921;52.034;20.650;2024-01-30T01:59:00;2.60;99.90
28767;DHT22;15921;52.034;20.650;2024-01-30T02:01:27;2.60;99.90
28767;DHT22;15921;52.034;20.650;2024-01-30T02:03:54;2.60;99.90
28767;DHT22;15921;52.034;20.650;2024-01-30T02:06:20;2.50;99.90
28767;DHT22;15921;52.034;20.650;2024-01-30T02:08:45;2.50;99.90
28767;DHT22;15921;52.034;20.650;2024-01-30T02:11:11;2.50;99.90
28767;DHT22;15921;52.034;20.650;2024-01-30T02:13:37;2.50;99.90
28767;DHT22;15921;52.034;20.650;2024-01-30T02:16:03;2.50;99.90
28767;DHT22;15921;52.034;20.650;2024-01-30T02:18:29;2.40;99.90
28767;DHT22;15921;52.034;20.650;2024-01-30T02:20:56;2.40;99.90
28767;DHT22;15921;52.034;20.650;2024-01-30T02:23:24;2.40;99.90
28767;DHT22;15921;52.034;20.650;2024-01-30T02:25:53;2.30;99.90
28767;DHT22;15921;52.034;20.650;2024-01-30T02:28:19;2.30;99.90
28767;DHT22;15921;52.034;20.650;2024-01-30T02:30:46;2.30;99.90
28767;DHT22;15921;52.034;20.650;2024-01-30T02:33:12;2.30;99.90
28767;DHT22;15921;52.034;20.650;2024-01-30T02:35:38;2.30;99.90
28767;DHT22;15921;52.034;20.650;2024-01-30T02:38:04;2.30;99.90
28767;DHT22;15921;52.034;20.650;2024-01-30T02:40:31;2.20;99.90
28767;DHT22;15921;52.034;20.650;2024-01-30T02:42:58;2.30;99.90
28767;DHT22;15921;52.034;20.650;2024-01-30T02:45:24;2.20;99.90
28767;DHT22;15921;52.034;20.650;2024-01-30T02:47:50;2.20;99.90
28767;DHT22;15921;52.034;20.650;2024-01-30T02:50:15;2.20;99.90
28767;DHT22;15921;52.034;20.650;2024-01-30T02:52:42;2.20;99.90
28767;DHT22;15921;52.034;20.650;2024-01-30T02:55:09;2.20;99.90
28767;DHT22;15921;52.034;20.650;2024-01-30T02:57:35;2.10;99.90
28767;DHT22;15921;52.034;20.650;2024-01-30T03:00:01;2.20;99.90
28767;DHT22;15921;52.034;20.650;2024-01-30T03:02:27;2.10;99.90
28767;DHT22;15921;52.034;20.650;2024-01-30T03:04:52;2.10;99.90
28767;DHT22;15921;52.034;20.650;2024-01-30T03:07:18;2.10;99.90
28767;DHT22;15921;52.034;20.650;2024-01-30T03:09:44;2.10;99.90
28767;DHT22;15921;52.034;20.650;2024-01-30T03:12:09;2.10;99.90
28767;DHT22;15921;52.034;20.650;2024-01-30T03:14:35;2.10;99.90
28767;DHT22;15921;52.034;20.650;2024-01-30T03:17:01;2.10;99.90
28767;DHT22;15921;52.034;20.650;2024-01-30T03:19:27;2.10;99.90
28767;DHT22;15921;52.034;20.650;2024-01-30T03:21:52;2.20;99.90
28767;DHT22;15921;52.034;20.650;2024-01-30T03:24:19;2.10;99.90
28767;DHT22;15921;52.034;20.650;2024-01-30T03:26:44;2.10;99.90
28767;DHT22;15921;52.034;20.650;2024-01-30T03:29:10;2.10;99.90
28767;DHT22;15921;52.034;20.650;2024-01-30T03:31:36;2.10;99.90
28767;DHT22;15921;52.034;20.650;2024-01-30T03:34:02;2.10;99.90
28767;DHT22;15921;52.034;20.650;2024-01-30T03:36:28;2.00;99.90
28767;DHT22;15921;52.034;20.650;2024-01-30T03:38:54;2.00;99.90
28767;DHT22;15921;52.034;20.650;2024-01-30T03:41:19;2.10;99.90
28767;DHT22;15921;52.034;20.650;2024-01-30T03:43:46;2.00;99.90
28767;DHT22;15921;52.034;20.650;2024-01-30T03:46:12;2.00;99.90
28767;DHT22;15921;52.034;20.650;2024-01-30T03:48:38;2.00;99.90
28767;DHT22;15921;52.034;20.650;2024-01-30T03:51:04;1.90;99.90
28767;DHT22;15921;52.034;20.650;2024-01-30T03:53:30;1.90;99.90
28767;DHT22;15921;52.034;20.650;2024-01-30T03:55:56;1.90;99.90
28767;DHT22;15921;52.034;20.650;2024-01-30T03:58:22;1.90;99.90
28767;DHT22;15921;52.034;20.650;2024-01-30T04:00:48;1.80;99.90
28767;DHT22;15921;52.034;20.650;2024-01-30T04:03:17;1.90;99.90
28767;DHT22;15921;52.034;20.650;2024-01-30T04:05:42;1.80;99.90
28767;DHT22;15921;52.034;20.650;2024-01-30T04:08:08;1.80;99.90
28767;DHT22;15921;52.034;20.650;2024-01-30T04:10:34;1.80;99.90
28767;DHT22;15921;52.034;20.650;2024-01-30T04:13:00;1.80;99.90
28767;DHT22;15921;52.034;20.650;2024-01-30T04:15:26;1.80;99.90
28767;DHT22;15921;52.034;20.650;2024-01-30T04:17:52;1.70;99.90
28767;DHT22;15921;52.034;20.650;2024-01-30T04:20:18;1.70;99.90
28767;DHT22;15921;52.034;20.650;2024-01-30T04:22:45;1.70;99.90
28767;DHT22;15921;52.034;20.650;2024-01-30T04:25:14;1.70;99.90
28767;DHT22;15921;52.034;20.650;2024-01-30T04:27:40;1.70;99.90
28767;DHT22;15921;52.034;20.650;2024-01-30T04:30:06;1.70;99.90
28767;DHT22;15921;52.034;20.650;2024-01-30T04:32:32;1.70;99.90
28767;DHT22;15921;52.034;20.650;2024-01-30T04:34:58;1.60;99.90
28767;DHT22;15921;52.034;20.650;2024-01-30T04:37:24;1.60;99.90
28767;DHT22;15921;52.034;20.650;2024-01-30T04:39:50;1.60;99.90
28767;DHT22;15921;52.034;20.650;2024-01-30T04:42:16;1.60;99.90
28767;DHT22;15921;52.034;20.650;2024-01-30T04:44:42;1.60;99.90
28767;DHT22;15921;52.034;20.650;2024-01-30T04:47:08;1.60;99.90
28767;DHT22;15921;52.034;20.650;2024-01-30T04:49:36;1.60;99.90
28767;DHT22;15921;52.034;20.650;2024-01-30T04:52:02;1.60;99.90
28767;DHT22;15921;52.034;20.650;2024-01-30T04:54:28;1.60;99.90
28767;DHT22;15921;52.034;20.650;2024-01-30T04:56:53;1.60;99.90
28767;DHT22;15921;52.034;20.650;2024-01-30T04:59:19;1.50;99.90
28767;DHT22;15921;52.034;20.650;2024-01-30T05:01:44;1.50;99.90
28767;DHT22;15921;52.034;20.650;2024-01-30T05:04:10;1.50;99.90
28767;DHT22;15921;52.034;20.650;2024-01-30T05:06:36;1.50;99.90
28767;DHT22;15921;52.034;20.650;2024-01-30T05:09:02;1.50;99.90
28767;DHT22;15921;52.034;20.650;2024-01-30T05:11:30;1.50;99.90
28767;DHT22;15921;52.034;20.650;2024-01-30T05:13:56;1.50;99.90
28767;DHT22;15921;52.034;20.650;2024-01-30T05:16:21;1.50;99.90
28767;DHT22;15921;52.034;20.650;2024-01-30T05:18:47;1.40;99.90
28767;DHT22;15921;52.034;20.650;2024-01-30T05:21:13;1.50;99.90
28767;DHT22;15921;52.034;20.650;2024-01-30T05:23:39;1.50;99.90
28767;DHT22;15921;52.034;20.650;2024-01-30T05:26:05;1.50;99.90
28767;DHT22;15921;52.034;20.650;2024-01-30T05:28:31;1.50;99.90
28767;DHT22;15921;52.034;20.650;2024-01-30T05:30:57;1.50;99.90
28767;DHT22;15921;52.034;20.650;2024-01-30T05:33:23;1.50;99.90
28767;DHT22;15921;52.034;20.650;2024-01-30T05:35:48;1.40;99.90
28767;DHT22;15921;52.034;20.650;2024-01-30T05:38:16;1.40;99.90
28767;DHT22;15921;52.034;20.650;2024-01-30T05:40:41;1.40;99.90
28767;DHT22;15921;52.034;20.650;2024-01-30T05:43:07;1.40;99.90
28767;DHT22;15921;52.034;20.650;2024-01-30T05:45:34;1.40;99.90
28767;DHT22;15921;52.034;20.650;2024-01-30T05:48:01;1.40;99.90
28767;DHT22;15921;52.034;20.650;2024-01-30T05:50:26;1.40;99.90
28767;DHT22;15921;52.034;20.650;2024-01-30T05:52:52;1.40;99.90
28767;DHT22;15921;52.034;20.650;2024-01-30T05:55:18;1.40;99.90
28767;DHT22;15921;52.034;20.650;2024-01-30T05:57:44;1.30;99.90
28767;DHT22;15921;52.034;20.650;2024-01-30T06:00:10;1.30;99.90
28767;DHT22;15921;52.034;20.650;2024-01-30T06:02:36;1.30;99.90
28767;DHT22;15921;52.034;20.650;2024-01-30T06:05:02;1.30;99.90
28767;DHT22;15921;52.034;20.650;2024-01-30T06:07:28;1.30;99.90
28767;DHT22;15921;52.034;20.650;2024-01-30T06:09:53;1.30;99.90
28767;DHT22;15921;52.034;20.650;2024-01-30T06:12:19;1.30;99.90
28767;DHT22;15921;52.034;20.650;2024-01-30T06:14:45;1.30;99.90
28767;DHT22;15921;52.034;20.650;2024-01-30T06:17:11;1.30;99.90
28767;DHT22;15921;52.034;20.650;2024-01-30T06:19:40;1.40;99.90
28767;DHT22;15921;52.034;20.650;2024-01-30T06:22:07;1.40;99.90
28767;DHT22;15921;52.034;20.650;2024-01-30T06:24:32;1.40;99.90
28767;DHT22;15921;52.034;20.650;2024-01-30T06:26:59;1.50;99.90
28767;DHT22;15921;52.034;20.650;2024-01-30T06:29:26;1.50;99.90
28767;DHT22;15921;52.034;20.650;2024-01-30T06:31:52;1.50;99.90
28767;DHT22;15921;52.034;20.650;2024-01-30T06:34:17;1.50;99.90
28767;DHT22;15921;52.034;20.650;2024-01-30T06:36:43;1.50;99.90
28767;DHT22;15921;52.034;20.650;2024-01-30T06:39:09;1.50;99.90
28767;DHT22;15921;52.034;20.650;2024-01-30T06:41:34;1.50;99.90
28767;DHT22;15921;52.034;20.650;2024-01-30T06:44:02;1.50;99.90
28767;DHT22;15921;52.034;20.650;2024-01-30T06:46:29;1.60;99.90
28767;DHT22;15921;52.034;20.650;2024-01-30T06:48:55;1.60;99.90
28767;DHT22;15921;52.034;20.650;2024-01-30T06:51:20;1.60;99.90
28767;DHT22;15921;52.034;20.650;2024-01-30T06:53:46;1.70;99.90
28767;DHT22;15921;52.034;20.650;2024-01-30T06:56:12;1.70;99.90
28767;DHT22;15921;52.034;20.650;2024-01-30T06:58:38;1.70;99.90
28767;DHT22;15921;52.034;20.650;2024-01-30T07:01:04;1.70;99.90
28767;DHT22;15921;52.034;20.650;2024-01-30T07:03:30;1.80;99.90
28767;DHT22;15921;52.034;20.650;2024-01-30T07:05:55;1.80;99.90
28767;DHT22;15921;52.034;20.650;2024-01-30T07:08:21;1.90;99.90
28767;DHT22;15921;52.034;20.650;2024-01-30T07:10:47;1.90;99.90
28767;DHT22;15921;52.034;20.650;2024-01-30T07:13:13;1.90;99.90
28767;DHT22;15921;52.034;20.650;2024-01-30T07:15:42;1.90;99.90
28767;DHT22;15921;52.034;20.650;2024-01-30T07:18:08;2.00;99.90
28767;DHT22;15921;52.034;20.650;2024-01-30T07:20:35;2.10;99.90
28767;DHT22;15921;52.034;20.650;2024-01-30T07:23:01;2.10;99.90
28767;DHT22;15921;52.034;20.650;2024-01-30T07:25:27;2.10;99.90
28767;DHT22;15921;52.034;20.650;2024-01-30T07:27:55;2.20;99.90
28767;DHT22;15921;52.034;20.650;2024-01-30T07:30:21;2.30;99.90
28767;DHT22;15921;52.034;20.650;2024-01-30T07:32:48;2.50;99.90
28767;DHT22;15921;52.034;20.650;2024-01-30T07:35:14;2.50;99.90
28767;DHT22;15921;52.034;20.650;2024-01-30T07:37:40;2.70;99.90
28767;DHT22;15921;52.034;20.650;2024-01-30T07:40:06;2.80;99.90
28767;DHT22;15921;52.034;20.650;2024-01-30T07:42:33;2.90;99.90
28767;DHT22;15921;52.034;20.650;2024-01-30T07:44:59;3.00;99.90
28767;DHT22;15921;52.034;20.650;2024-01-30T07:47:25;3.10;99.90
28767;DHT22;15921;52.034;20.650;2024-01-30T07:49:51;3.10;99.90
28767;DHT22;15921;52.034;20.650;2024-01-30T07:52:16;3.20;99.90
28767;DHT22;15921;52.034;20.650;2024-01-30T07:54:42;3.30;99.90
28767;DHT22;15921;52.034;20.650;2024-01-30T07:57:08;3.40;99.90
28767;DHT22;15921;52.034;20.650;2024-01-30T07:59:33;3.50;99.90
28767;DHT22;15921;52.034;20.650;2024-01-30T08:01:59;3.60;99.90
28767;DHT22;15921;52.034;20.650;2024-01-30T08:04:25;3.70;99.90
28767;DHT22;15921;52.034;20.650;2024-01-30T08:06:50;3.70;99.90
28767;DHT22;15921;52.034;20.650;2024-01-30T08:09:16;3.80;99.90
28767;DHT22;15921;52.034;20.650;2024-01-30T08:11:42;3.90;99.90
28767;DHT22;15921;52.034;20.650;2024-01-30T08:14:08;3.90;99.90
28767;DHT22;15921;52.034;20.650;2024-01-30T08:16:33;4.00;99.90
28767;DHT22;15921;52.034;20.650;2024-01-30T08:18:59;4.00;99.90
28767;DHT22;15921;52.034;20.650;2024-01-30T08:21:26;4.10;99.90
28767;DHT22;15921;52.034;20.650;2024-01-30T08:23:51;4.10;99.90
28767;DHT22;15921;52.034;20.650;2024-01-30T08:26:17;4.20;99.90
28767;DHT22;15921;52.034;20.650;2024-01-30T08:28:43;4.30;99.90
28767;DHT22;15921;52.034;20.650;2024-01-30T08:31:10;4.30;99.90
28767;DHT22;15921;52.034;20.650;2024-01-30T08:33:37;4.40;99.90
28767;DHT22;15921;52.034;20.650;2024-01-30T08:36:03;4.50;99.90
28767;DHT22;15921;52.034;20.650;2024-01-30T08:38:29;4.60;99.90
28767;DHT22;15921;52.034;20.650;2024-01-30T08:40:55;4.60;99.90
28767;DHT22;15921;52.034;20.650;2024-01-30T08:43:21;4.70;99.90
28767;DHT22;15921;52.034;20.650;2024-01-30T08:45:47;4.70;99.90
28767;DHT22;15921;52.034;20.650;2024-01-30T08:48:12;4.80;99.90
28767;DHT22;15921;52.034;20.650;2024-01-30T08:50:38;4.80;99.90
28767;DHT22;15921;52.034;20.650;2024-01-30T08:53:04;4.90;99.90
28767;DHT22;15921;52.034;20.650;2024-01-30T08:55:30;5.00;99.90
28767;DHT22;15921;52.034;20.650;2024-01-30T08:57:56;5.00;99.90
28767;DHT22;15921;52.034;20.650;2024-01-30T09:00:21;5.10;99.80
28767;DHT22;15921;52.034;20.650;2024-01-30T09:02:47;5.10;99.10
28767;DHT22;15921;52.034;20.650;2024-01-30T09:05:13;5.10;99.00
28767;DHT22;15921;52.034;20.650;2024-01-30T09:07:39;5.20;99.00
28767;DHT22;15921;52.034;20.650;2024-01-30T09:10:05;5.20;98.80
28767;DHT22;15921;52.034;20.650;2024-01-30T09:12:31;5.30;98.40
28767;DHT22;15921;52.034;20.650;2024-01-30T09:14:56;5.40;98.00
28767;DHT22;15921;52.034;20.650;2024-01-30T09:17:22;5.40;97.70
28767;DHT22;15921;52.034;20.650;2024-01-30T09:19:48;5.50;97.60
28767;DHT22;15921;52.034;20.650;2024-01-30T09:22:13;5.60;97.40
28767;DHT22;15921;52.034;20.650;2024-01-30T09:24:40;5.60;96.80
28767;DHT22;15921;52.034;20.650;2024-01-30T09:27:06;5.70;96.30
28767;DHT22;15921;52.034;20.650;2024-01-30T09:29:32;5.70;96.50
28767;DHT22;15921;52.034;20.650;2024-01-30T09:32:00;5.80;96.20
28767;DHT22;15921;52.034;20.650;2024-01-30T09:34:25;5.80;96.10
28767;DHT22;15921;52.034;20.650;2024-01-30T09:36:51;5.90;95.80
28767;DHT22;15921;52.034;20.650;2024-01-30T09:39:17;5.90;95.50
28767;DHT22;15921;52.034;20.650;2024-01-30T09:41:48;6.00;94.90
28767;DHT22;15921;52.034;20.650;2024-01-30T09:44:16;6.00;94.60
28767;DHT22;15921;52.034;20.650;2024-01-30T09:46:43;6.10;94.40
28767;DHT22;15921;52.034;20.650;2024-01-30T09:49:09;6.20;94.20
28767;DHT22;15921;52.034;20.650;2024-01-30T09:51:35;6.20;93.80
28767;DHT22;15921;52.034;20.650;2024-01-30T09:54:02;6.30;93.90
28767;DHT22;15921;52.034;20.650;2024-01-30T09:56:28;6.30;93.20
28767;DHT22;15921;52.034;20.650;2024-01-30T09:58:54;6.30;92.90
28767;DHT22;15921;52.034;20.650;2024-01-30T10:01:20;6.40;93.00
28767;DHT22;15921;52.034;20.650;2024-01-30T10:03:46;6.50;92.60
28767;DHT22;15921;52.034;20.650;2024-01-30T10:06:12;6.50;92.10
28767;DHT22;15921;52.034;20.650;2024-01-30T10:08:37;6.50;91.70
28767;DHT22;15921;52.034;20.650;2024-01-30T10:11:03;6.60;91.50
28767;DHT22;15921;52.034;20.650;2024-01-30T10:13:29;6.60;91.00
28767;DHT22;15921;52.034;20.650;2024-01-30T10:15:55;6.70;90.70
28767;DHT22;15921;52.034;20.650;2024-01-30T10:18:22;6.80;90.50
28767;DHT22;15921;52.034;20.650;2024-01-30T10:20:49;6.90;90.40
28767;DHT22;15921;52.034;20.650;2024-01-30T10:23:15;6.90;90.40
28767;DHT22;15921;52.034;20.650;2024-01-30T10:25:40;7.00;90.50
28767;DHT22;15921;52.034;20.650;2024-01-30T10:28:07;7.10;90.20
28767;DHT22;15921;52.034;20.650;2024-01-30T10:30:32;7.20;90.00
28767;DHT22;15921;52.034;20.650;2024-01-30T10:32:58;7.20;89.30
28767;DHT22;15921;52.034;20.650;2024-01-30T10:35:24;7.30;88.30
28767;DHT22;15921;52.034;20.650;2024-01-30T10:37:49;7.30;88.50
28767;DHT22;15921;52.034;20.650;2024-01-30T10:40:15;7.40;88.40
28767;DHT22;15921;52.034;20.650;2024-01-30T10:42:45;7.50;87.90
28767;DHT22;15921;52.034;20.650;2024-01-30T10:45:13;7.60;87.80
28767;DHT22;15921;52.034;20.650;2024-01-30T10:47:47;7.60;87.30
28767;DHT22;15921;52.034;20.650;2024-01-30T10:50:14;7.70;85.90
28767;DHT22;15921;52.034;20.650;2024-01-30T10:52:41;7.80;85.40
28767;DHT22;15921;52.034;20.650;2024-01-30T10:55:08;7.70;84.80
28767;DHT22;15921;52.034;20.650;2024-01-30T10:57:37;7.70;83.70
28767;DHT22;15921;52.034;20.650;2024-01-30T11:00:06;7.70;83.40
28767;DHT22;15921;52.034;20.650;2024-01-30T11:02:36;7.80;84.30
28767;DHT22;15921;52.034;20.650;2024-01-30T11:05:04;7.90;82.20
28767;DHT22;15921;52.034;20.650;2024-01-30T11:07:30;7.90;83.80
28767;DHT22;15921;52.034;20.650;2024-01-30T11:10:00;8.00;83.60
28767;DHT22;15921;52.034;20.650;2024-01-30T11:12:28;8.00;82.40
28767;DHT22;15921;52.034;20.650;2024-01-30T11:15:08;8.10;82.20
28767;DHT22;15921;52.034;20.650;2024-01-30T11:20:41;8.30;80.80
28767;DHT22;15921;52.034;20.650;2024-01-30T11:23:12;8.40;80.80
28767;DHT22;15921;52.034;20.650;2024-01-30T11:25:38;8.40;81.30
28767;DHT22;15921;52.034;20.650;2024-01-30T11:28:04;8.50;80.90
28767;DHT22;15921;52.034;20.650;2024-01-30T11:30:32;8.60;79.90
28767;DHT22;15921;52.034;20.650;2024-01-30T11:33:02;8.70;79.60
28767;DHT22;15921;52.034;20.650;2024-01-30T11:35:50;8.70;79.60
28767;DHT22;15921;52.034;20.650;2024-01-30T11:38:16;8.80;78.70
28767;DHT22;15921;52.034;20.650;2024-01-30T11:40:43;8.80;78.70
28767;DHT22;15921;52.034;20.650;2024-01-30T11:43:09;8.80;77.80
28767;DHT22;15921;52.034;20.650;2024-01-30T11:45:36;8.90;77.90
28767;DHT22;15921;52.034;20.650;2024-01-30T11:48:03;9.00;77.70
28767;DHT22;15921;52.034;20.650;2024-01-30T11:50:30;9.20;77.80
28767;DHT22;15921;52.034;20.650;2024-01-30T11:52:56;9.40;77.00
28767;DHT22;15921;52.034;20.650;2024-01-30T11:55:23;9.70;76.70
28767;DHT22;15921;52.034;20.650;2024-01-30T11:57:49;10.50;75.90
28767;DHT22;15921;52.034;20.650;2024-01-30T12:00:18;11.60;73.30
28767;DHT22;15921;52.034;20.650;2024-01-30T12:02:49;12.90;69.20
28767;DHT22;15921;52.034;20.650;2024-01-30T12:05:15;14.30;66.20
28767;DHT22;15921;52.034;20.650;2024-01-30T12:07:44;15.70;61.70
28767;DHT22;15921;52.034;20.650;2024-01-30T12:10:10;16.80;58.60
28767;DHT22;15921;52.034;20.650;2024-01-30T12:12:36;17.30;55.90
28767;DHT22;15921;52.034;20.650;2024-01-30T12:15:02;17.60;54.60
28767;DHT22;15921;52.034;20.650;2024-01-30T12:17:33;17.70;53.70
28767;DHT22;15921;52.034;20.650;2024-01-30T12:20:14;17.70;53.20
28767;DHT22;15921;52.034;20.650;2024-01-30T12:22:41;17.80;52.50
28767;DHT22;15921;52.034;20.650;2024-01-30T12:25:09;17.90;51.60
28767;DHT22;15921;52.034;20.650;2024-01-30T12:27:35;17.80;52.00
28767;DHT22;15921;52.034;20.650;2024-01-30T12:30:01;18.00;51.40
28767;DHT22;15921;52.034;20.650;2024-01-30T12:32:28;18.00;50.90
28767;DHT22;15921;52.034;20.650;2024-01-30T12:34:56;18.30;50.50
28767;DHT22;15921;52.034;20.650;2024-01-30T12:37:22;18.50;49.10
28767;DHT22;15921;52.034;20.650;2024-01-30T12:39:51;18.80;49.40
28767;DHT22;15921;52.034;20.650;2024-01-30T12:42:19;19.00;48.40
28767;DHT22;15921;52.034;20.650;2024-01-30T12:44:45;19.50;48.50
28767;DHT22;15921;52.034;20.650;2024-01-30T12:47:11;20.30;47.40
28767;DHT22;15921;52.034;20.650;2024-01-30T12:49:37;20.60;46.30
28767;DHT22;15921;52.034;20.650;2024-01-30T12:52:03;20.90;45.50
28767;DHT22;15921;52.034;20.650;2024-01-30T12:54:29;20.80;45.20
28767;DHT22;15921;52.034;20.650;2024-01-30T12:56:54;20.30;44.70
28767;DHT22;15921;52.034;20.650;2024-01-30T12:59:21;20.40;45.30
28767;DHT22;15921;52.034;20.650;2024-01-30T13:01:47;20.80;44.80
28767;DHT22;15921;52.034;20.650;2024-01-30T13:04:13;21.10;44.10
28767;DHT22;15921;52.034;20.650;2024-01-30T13:06:38;21.30;43.70
28767;DHT22;15921;52.034;20.650;2024-01-30T13:09:04;21.10;43.40
28767;DHT22;15921;52.034;20.650;2024-01-30T13:11:31;20.00;43.80
28767;DHT22;15921;52.034;20.650;2024-01-30T13:13:57;19.30;45.00
28767;DHT22;15921;52.034;20.650;2024-01-30T13:16:23;18.80;45.90
28767;DHT22;15921;52.034;20.650;2024-01-30T13:18:48;18.10;46.90
28767;DHT22;15921;52.034;20.650;2024-01-30T13:21:15;17.60;47.60
28767;DHT22;15921;52.034;20.650;2024-01-30T13:23:40;16.90;48.50
28767;DHT22;15921;52.034;20.650;2024-01-30T13:26:06;16.20;49.40
28767;DHT22;15921;52.034;20.650;2024-01-30T13:28:32;15.90;50.00
28767;DHT22;15921;52.034;20.650;2024-01-30T13:30:58;15.90;50.90
28767;DHT22;15921;52.034;20.650;2024-01-30T13:33:24;15.90;51.00
28767;DHT22;15921;52.034;20.650;2024-01-30T13:35:50;16.10;50.90
28767;DHT22;15921;52.034;20.650;2024-01-30T13:38:16;16.40;50.90
28767;DHT22;15921;52.034;20.650;2024-01-30T13:40:42;17.40;50.40
28767;DHT22;15921;52.034;20.650;2024-01-30T13:43:07;18.80;48.50
28767;DHT22;15921;52.034;20.650;2024-01-30T13:45:33;19.30;47.40
28767;DHT22;15921;52.034;20.650;2024-01-30T13:47:58;19.30;46.20
28767;DHT22;15921;52.034;20.650;2024-01-30T13:50:24;19.00;46.20
28767;DHT22;15921;52.034;20.650;2024-01-30T13:52:50;18.30;46.80
28767;DHT22;15921;52.034;20.650;2024-01-30T13:55:15;17.60;48.20
28767;DHT22;15921;52.034;20.650;2024-01-30T13:57:41;17.50;48.80
28767;DHT22;15921;52.034;20.650;2024-01-30T14:00:07;17.10;49.40
28767;DHT22;15921;52.034;20.650;2024-01-30T14:02:34;17.20;49.80
28767;DHT22;15921;52.034;20.650;2024-01-30T14:05:00;16.90;49.30
28767;DHT22;15921;52.034;20.650;2024-01-30T14:07:25;16.00;50.70
28767;DHT22;15921;52.034;20.650;2024-01-30T14:09:51;16.10;51.30
28767;DHT22;15921;52.034;20.650;2024-01-30T14:12:17;16.70;50.40
28767;DHT22;15921;52.034;20.650;2024-01-30T14:14:42;16.80;50.20
28767;DHT22;15921;52.034;20.650;2024-01-30T14:17:08;16.20;50.40
28767;DHT22;15921;52.034;20.650;2024-01-30T14:19:35;15.40;51.40
28767;DHT22;15921;52.034;20.650;2024-01-30T14:22:03;14.70;52.60
28767;DHT22;15921;52.034;20.650;2024-01-30T14:24:29;14.30;53.60
28767;DHT22;15921;52.034;20.650;2024-01-30T14:26:55;13.90;54.40
28767;DHT22;15921;52.034;20.650;2024-01-30T14:29:21;13.90;54.70
28767;DHT22;15921;52.034;20.650;2024-01-30T14:31:46;14.20;54.70
28767;DHT22;15921;52.034;20.650;2024-01-30T14:34:12;14.70;53.90
28767;DHT22;15921;52.034;20.650;2024-01-30T14:36:38;15.10;53.30
28767;DHT22;15921;52.034;20.650;2024-01-30T14:39:04;15.00;52.80
28767;DHT22;15921;52.034;20.650;2024-01-30T14:41:29;14.90;52.80
28767;DHT22;15921;52.034;20.650;2024-01-30T14:43:55;15.00;53.10
28767;DHT22;15921;52.034;20.650;2024-01-30T14:46:21;15.00;52.90
28767;DHT22;15921;52.034;20.650;2024-01-30T14:48:47;14.50;53.30
28767;DHT22;15921;52.034;20.650;2024-01-30T14:51:13;13.60;54.30
28767;DHT22;15921;52.034;20.650;2024-01-30T14:53:39;12.50;56.10
28767;DHT22;15921;52.034;20.650;2024-01-30T14:56:05;11.90;57.70
28767;DHT22;15921;52.034;20.650;2024-01-30T14:58:31;11.40;58.90
28767;DHT22;15921;52.034;20.650;2024-01-30T15:00:57;10.80;60.20
28767;DHT22;15921;52.034;20.650;2024-01-30T15:03:23;10.20;61.70
28767;DHT22;15921;52.034;20.650;2024-01-30T15:05:48;9.70;63.20
28767;DHT22;15921;52.034;20.650;2024-01-30T15:08:14;9.30;64.50
28767;DHT22;15921;52.034;20.650;2024-01-30T15:10:40;8.90;65.80
28767;DHT22;15921;52.034;20.650;2024-01-30T15:13:06;8.60;66.90
28767;DHT22;15921;52.034;20.650;2024-01-30T15:15:31;8.30;68.00
28767;DHT22;15921;52.034;20.650;2024-01-30T15:17:57;8.00;68.90
28767;DHT22;15921;52.034;20.650;2024-01-30T15:20:23;7.80;70.00
28767;DHT22;15921;52.034;20.650;2024-01-30T15:22:49;7.50;71.00
28767;DHT22;15921;52.034;20.650;2024-01-30T15:25:15;7.20;71.90